createdAt,value
2023-02-21T06:03:08.474Z,19.49
2023-02-21T06:04:09.471Z,19.70
2023-02-21T06:05:09.494Z,19.76
2023-02-21T06:06:09.523Z,19.80
2023-02-21T06:07:09.973Z,19.82
2023-02-21T06:08:11.469Z,19.84
2023-02-21T06:09:09.572Z,19.86
2023-02-21T06:13:09.530Z,19.88
2023-02-21T06:14:09.536Z,19.88
2023-02-21T06:17:09.524Z,19.88
2023-02-21T06:19:09.520Z,19.89
2023-02-21T06:21:09.487Z,19.90
2023-02-21T06:22:09.469Z,19.90
2023-02-21T06:26:09.445Z,19.89
2023-02-21T06:27:09.443Z,19.90
2023-02-21T06:29:09.432Z,19.90
2023-02-21T06:33:09.402Z,19.90
2023-02-21T06:34:09.396Z,19.89
2023-02-21T06:35:09.428Z,19.89
2023-02-21T06:39:09.357Z,19.90
2023-02-21T06:40:09.348Z,19.91
2023-02-21T06:41:09.348Z,19.90
2023-02-21T06:42:09.333Z,19.90
2023-02-21T06:43:09.327Z,19.90
2023-02-21T06:44:09.317Z,19.90
2023-02-21T06:45:09.325Z,19.89
2023-02-21T06:46:09.369Z,19.89
2023-02-21T06:47:09.344Z,19.89
2023-02-21T06:48:09.297Z,19.89
2023-02-21T06:49:09.291Z,19.89
2023-02-21T06:50:10.439Z,19.89
2023-02-21T06:51:09.310Z,19.89
2023-02-21T06:52:09.283Z,19.90
2023-02-21T06:54:09.310Z,19.89
2023-02-21T06:55:09.254Z,19.89
2023-02-21T06:56:09.259Z,19.90
2023-02-21T06:57:09.258Z,19.89
2023-02-21T06:58:09.232Z,19.90
2023-02-21T06:59:09.216Z,19.90
2023-02-21T07:00:09.205Z,19.90
2023-02-21T07:01:09.214Z,19.89
2023-02-21T07:02:09.500Z,19.90
2023-02-21T07:03:09.201Z,19.90
2023-02-21T07:04:09.187Z,19.91
2023-02-21T07:05:09.165Z,19.91
2023-02-21T07:06:09.167Z,19.91
2023-02-21T07:07:09.196Z,19.91
2023-02-21T07:08:09.161Z,19.91
2023-02-21T07:09:09.189Z,19.91
2023-02-21T07:10:09.194Z,19.91
2023-02-21T07:11:09.201Z,19.90
2023-02-21T07:12:09.216Z,19.91
2023-02-21T07:13:09.221Z,19.91
2023-02-21T07:17:09.284Z,19.92
2023-02-21T07:19:09.306Z,19.92
2023-02-21T07:20:09.342Z,19.92
2023-02-21T07:21:09.345Z,19.93
2023-02-21T07:22:09.347Z,19.93
2023-02-21T07:33:08.486Z,19.94
2023-02-21T08:07:09.983Z,20.04
2023-02-21T08:10:09.993Z,20.03
2023-02-21T08:11:10.041Z,20.04
2023-02-21T08:14:10.004Z,20.05
2023-02-21T08:15:09.990Z,20.05
2023-02-21T08:17:10.069Z,20.04
2023-02-21T08:18:11.196Z,20.05
2023-02-21T08:21:10.172Z,20.05
2023-02-21T08:22:10.179Z,20.05
2023-02-21T08:23:10.173Z,20.06
2023-02-21T08:24:10.188Z,20.06
2023-02-21T08:27:10.229Z,20.06
2023-02-21T08:29:10.232Z,20.06
2023-02-21T08:30:10.259Z,20.07
2023-02-21T08:31:10.229Z,20.07
2023-02-21T08:32:10.269Z,20.07
2023-02-21T08:33:10.243Z,20.08
2023-02-21T08:34:10.234Z,20.07
2023-02-21T08:35:09.241Z,20.08
2023-02-21T08:36:10.229Z,20.08
2023-02-21T08:37:10.268Z,20.07
2023-02-21T08:38:10.353Z,20.07
2023-02-21T08:39:10.315Z,20.07
2023-02-21T08:40:10.335Z,20.07
2023-02-21T08:41:10.341Z,20.08
2023-02-21T08:42:09.387Z,20.07
2023-02-21T08:43:10.415Z,20.07
2023-02-21T08:44:09.389Z,20.08
2023-02-21T08:45:10.401Z,20.07
2023-02-21T08:47:10.409Z,20.09
2023-02-21T08:48:10.556Z,20.08
2023-02-21T08:49:09.408Z,20.07
2023-02-21T08:50:10.433Z,20.09
2023-02-21T08:51:09.429Z,20.09
2023-02-21T08:52:10.463Z,20.09
2023-02-21T08:53:09.547Z,20.09
2023-02-21T08:54:09.592Z,20.16
2023-02-21T08:55:10.546Z,20.18
2023-02-21T08:57:10.546Z,20.21
2023-02-21T08:59:09.770Z,20.34
2023-02-21T09:00:10.608Z,20.39
2023-02-21T09:01:10.669Z,20.39
2023-02-21T09:02:10.677Z,20.39
2023-02-21T09:03:10.634Z,20.40
2023-02-21T09:04:09.649Z,20.41
2023-02-21T09:05:10.903Z,20.44
2023-02-21T09:06:10.715Z,20.49
2023-02-21T09:08:10.835Z,20.54
2023-02-21T09:09:10.826Z,20.59
2023-02-21T09:10:10.905Z,20.60
2023-02-21T09:11:09.882Z,20.63
2023-02-21T09:12:11.074Z,20.66
2023-02-21T09:13:11.010Z,20.69
2023-02-21T09:14:10.035Z,20.71
2023-02-21T09:15:10.131Z,20.73
2023-02-21T09:16:11.169Z,20.77
2023-02-21T09:17:11.154Z,20.80
2023-02-21T09:18:11.185Z,20.84
2023-02-21T09:19:11.194Z,20.86
2023-02-21T09:20:11.260Z,20.87
2023-02-21T09:21:11.293Z,20.88
2023-02-21T09:22:11.307Z,20.90
2023-02-21T09:23:11.370Z,20.90
2023-02-21T09:24:11.383Z,20.93
2023-02-21T09:25:11.379Z,20.96
2023-02-21T09:26:10.420Z,20.98
2023-02-21T09:27:10.434Z,21.00
2023-02-21T09:28:11.443Z,21.00
2023-02-21T09:29:11.459Z,21.00
2023-02-21T09:30:10.544Z,21.01
2023-02-21T09:31:11.462Z,21.02
2023-02-21T09:32:11.452Z,21.03
2023-02-21T09:33:11.431Z,21.04
2023-02-21T09:34:11.433Z,21.05
2023-02-21T09:35:11.494Z,21.07
2023-02-21T09:36:11.481Z,21.09
2023-02-21T09:37:11.477Z,21.10
2023-02-21T09:38:10.509Z,21.12
2023-02-21T09:39:11.499Z,21.13
2023-02-21T09:40:11.524Z,21.13
2023-02-21T09:41:11.550Z,21.14
2023-02-21T09:42:11.552Z,21.13
2023-02-21T09:43:10.557Z,21.12
2023-02-21T09:44:11.558Z,21.09
2023-02-21T09:45:11.582Z,21.06
2023-02-21T09:46:11.653Z,21.05
2023-02-21T09:47:11.634Z,21.05
2023-02-21T09:48:11.624Z,21.04
2023-02-21T09:49:11.635Z,21.02
2023-02-21T09:50:13.189Z,21.00
2023-02-21T09:51:10.798Z,20.99
2023-02-21T09:52:11.829Z,20.99
2023-02-21T09:53:11.838Z,20.98
2023-02-21T09:54:11.854Z,20.97
2023-02-21T09:55:11.881Z,20.96
2023-02-21T09:56:11.893Z,20.96
2023-02-21T09:57:11.913Z,20.94
2023-02-21T09:58:11.062Z,20.94
2023-02-21T09:59:10.964Z,20.93
2023-02-21T10:00:11.986Z,20.92
2023-02-21T10:01:11.036Z,20.91
2023-02-21T10:02:12.054Z,20.90
2023-02-21T10:03:12.106Z,20.89
2023-02-21T10:04:12.126Z,20.87
2023-02-21T10:05:12.165Z,20.87
2023-02-21T10:06:12.209Z,20.86
2023-02-21T10:07:12.250Z,20.85
2023-02-21T10:08:12.514Z,20.85
2023-02-21T10:09:12.343Z,20.85
2023-02-21T10:10:12.391Z,20.84
2023-02-21T10:11:12.579Z,20.83
2023-02-21T10:12:12.497Z,20.83
2023-02-21T10:13:12.553Z,20.83
2023-02-21T10:14:12.612Z,20.83
2023-02-21T10:15:11.603Z,20.83
2023-02-21T10:16:12.670Z,20.82
2023-02-21T10:17:12.703Z,20.82
2023-02-21T10:18:12.739Z,20.82
2023-02-21T10:19:12.858Z,20.81
2023-02-21T10:20:12.874Z,20.82
2023-02-21T10:21:13.163Z,20.81
2023-02-21T10:22:12.970Z,20.80
2023-02-21T10:23:12.008Z,20.80
2023-02-21T10:24:13.076Z,20.79
2023-02-21T10:25:12.096Z,20.79
2023-02-21T10:26:13.172Z,20.79
2023-02-21T10:27:13.216Z,20.79
2023-02-21T10:28:12.274Z,20.78
2023-02-21T10:29:12.337Z,20.78
2023-02-21T10:30:13.455Z,20.79
2023-02-21T10:31:13.820Z,20.79
2023-02-21T10:32:13.686Z,20.79
2023-02-21T10:33:12.565Z,20.78
2023-02-21T10:34:13.617Z,20.77
2023-02-21T10:35:12.707Z,20.77
2023-02-21T10:36:13.769Z,20.77
2023-02-21T10:37:13.882Z,20.77
2023-02-21T10:38:12.792Z,20.77
2023-02-21T10:39:12.811Z,20.77
2023-02-21T10:40:13.830Z,20.77
2023-02-21T10:41:14.288Z,20.78
2023-02-21T10:42:13.893Z,20.78
2023-02-21T10:43:13.927Z,20.78
2023-02-21T10:44:13.944Z,20.77
2023-02-21T10:45:14.010Z,20.77
2023-02-21T10:46:13.115Z,20.77
2023-02-21T10:47:14.086Z,20.77
2023-02-21T10:48:14.575Z,20.77
2023-02-21T10:49:13.207Z,20.77
2023-02-21T10:50:14.249Z,20.77
2023-02-21T10:51:14.766Z,20.77
2023-02-21T10:52:14.358Z,20.76
2023-02-21T10:53:13.604Z,20.77
2023-02-21T10:54:13.473Z,20.76
2023-02-21T10:55:30.063Z,20.76
2023-02-21T10:56:14.974Z,20.74
2023-02-21T10:57:13.535Z,20.73
2023-02-21T10:58:13.535Z,20.74
2023-02-21T10:59:13.517Z,20.74
2023-02-21T11:00:14.497Z,20.74
2023-02-21T11:01:14.910Z,20.74
2023-02-21T11:02:14.554Z,20.73
2023-02-21T11:03:13.502Z,20.74
2023-02-21T11:04:13.489Z,20.74
2023-02-21T11:05:13.500Z,20.74
2023-02-21T11:06:13.475Z,20.73
2023-02-21T11:07:14.482Z,20.72
2023-02-21T11:08:14.454Z,20.72
2023-02-21T11:09:14.455Z,20.73
2023-02-21T11:10:14.445Z,20.72
2023-02-21T11:11:13.674Z,20.71
2023-02-21T11:12:14.510Z,20.71
2023-02-21T11:13:14.570Z,20.71
2023-02-21T11:14:14.643Z,20.71
2023-02-21T11:15:14.670Z,20.71
2023-02-21T11:16:14.807Z,20.71
2023-02-21T11:17:14.392Z,20.71
2023-02-21T11:18:14.865Z,20.71
2023-02-21T11:19:14.908Z,20.70
2023-02-21T11:20:14.977Z,20.70
2023-02-21T11:21:14.429Z,20.70
2023-02-21T11:22:15.100Z,20.70
2023-02-21T11:23:15.178Z,20.70
2023-02-21T11:24:15.255Z,20.71
2023-02-21T11:25:14.328Z,20.71
2023-02-21T11:26:15.346Z,20.71
2023-02-21T11:27:14.398Z,20.70
2023-02-21T11:28:15.448Z,20.70
2023-02-21T11:29:15.467Z,20.70
2023-02-21T11:30:15.536Z,20.71
2023-02-21T11:31:15.850Z,20.70
2023-02-21T11:32:15.640Z,20.70
2023-02-21T11:33:15.650Z,20.69
2023-02-21T11:34:15.756Z,20.70
2023-02-21T11:35:14.775Z,20.69
2023-02-21T11:36:15.818Z,20.69
2023-02-21T11:37:15.861Z,20.69
2023-02-21T11:38:15.895Z,20.69
2023-02-21T11:40:16.060Z,20.70
2023-02-21T11:41:16.438Z,20.69
2023-02-21T11:42:16.099Z,20.69
2023-02-21T11:43:16.599Z,20.69
2023-02-21T11:44:16.233Z,20.69
2023-02-21T11:45:16.289Z,20.69
2023-02-21T11:47:16.500Z,20.68
2023-02-21T11:48:16.608Z,20.74
2023-02-21T11:49:16.725Z,20.74
2023-02-21T13:44:39.969Z,20.81
2023-02-21T13:45:40.006Z,20.80
2023-02-21T13:50:40.212Z,20.78
2023-02-21T13:51:40.250Z,20.78
2023-02-21T13:52:40.274Z,20.77
2023-02-21T13:53:40.300Z,20.78
2023-02-21T13:54:40.344Z,20.77
2023-02-21T13:55:40.368Z,20.76
2023-02-21T13:56:40.393Z,20.76
2023-02-21T14:00:40.704Z,20.75
2023-02-21T14:01:40.666Z,20.74
2023-02-21T14:02:40.700Z,20.74
2023-02-21T14:04:40.810Z,20.74
2023-02-21T14:05:40.826Z,20.74
2023-02-21T14:06:40.862Z,20.74
2023-02-21T14:07:40.922Z,20.74
2023-02-21T14:08:39.964Z,20.74
2023-02-21T14:09:41.027Z,20.74
2023-02-21T14:10:41.112Z,20.74
2023-02-21T14:11:40.143Z,20.76
2023-02-21T14:12:41.205Z,20.75
2023-02-21T14:14:40.295Z,20.75
2023-02-21T14:15:41.356Z,20.76
2023-02-21T14:16:41.450Z,20.76
2023-02-21T14:17:41.529Z,20.77
2023-02-21T14:18:40.453Z,20.76
2023-02-21T14:19:40.516Z,20.76
2023-02-21T14:20:41.546Z,20.77
2023-02-21T14:21:41.596Z,20.77
2023-02-21T14:22:41.648Z,20.77
2023-02-21T14:23:41.709Z,20.77
2023-02-21T14:24:41.753Z,20.76
2023-02-21T14:25:41.801Z,20.77
2023-02-21T14:26:40.864Z,20.75
2023-02-21T14:27:41.906Z,20.76
2023-02-21T14:28:41.958Z,20.76
2023-02-21T14:29:41.094Z,20.75
2023-02-21T14:30:41.099Z,20.75
2023-02-21T14:31:42.163Z,20.75
2023-02-21T14:32:41.262Z,20.75
2023-02-21T14:33:42.281Z,20.75
2023-02-21T14:34:41.294Z,20.75
2023-02-21T14:35:42.361Z,20.75
2023-02-21T14:36:42.403Z,20.74
2023-02-21T14:37:42.465Z,20.74
2023-02-21T14:38:42.523Z,20.75
2023-02-21T14:39:41.572Z,20.74
2023-02-21T14:40:42.644Z,20.75
2023-02-21T14:41:42.698Z,20.75
2023-02-21T14:42:42.753Z,20.74
2023-02-21T14:43:42.447Z,20.74
2023-02-21T14:44:41.882Z,20.74
2023-02-21T14:45:41.971Z,20.75
2023-02-21T14:46:42.022Z,20.74
2023-02-21T14:47:43.058Z,20.74
2023-02-21T14:48:43.113Z,20.74
2023-02-21T14:49:42.181Z,20.74
2023-02-21T14:50:42.219Z,20.74
2023-02-21T14:51:43.296Z,20.73
2023-02-21T14:52:42.337Z,20.73
2023-02-21T14:53:43.401Z,20.74
2023-02-21T14:54:42.471Z,20.74
2023-02-21T14:55:42.525Z,20.73
2023-02-21T14:56:43.585Z,20.73
2023-02-21T14:57:43.662Z,20.73
2023-02-21T14:58:43.800Z,20.72
2023-02-21T14:59:43.809Z,20.71
2023-02-21T15:00:43.915Z,20.72
2023-02-21T15:01:43.930Z,20.72
2023-02-21T15:02:42.979Z,20.72
2023-02-21T15:03:43.038Z,20.71
2023-02-21T15:04:44.136Z,20.71
2023-02-21T15:05:44.172Z,20.72
2023-02-21T15:06:44.201Z,20.72
2023-02-21T15:07:43.236Z,20.72
2023-02-21T15:08:44.299Z,20.72
2023-02-21T15:13:43.602Z,20.72
2023-02-21T15:18:43.883Z,20.72
2023-02-21T15:19:43.934Z,20.73
2023-02-21T15:30:44.590Z,20.35
2023-02-21T15:32:44.474Z,20.02
2023-02-21T15:34:45.557Z,19.59
2023-02-21T15:35:45.622Z,19.48
2023-02-21T15:36:44.598Z,19.36
2023-02-21T15:38:44.658Z,19.16
2023-02-21T15:41:45.708Z,19.12
2023-02-21T15:43:45.732Z,19.28
2023-02-21T15:47:45.857Z,19.55
2023-02-21T15:49:45.867Z,19.63
2023-02-21T15:50:45.867Z,19.68
2023-02-21T15:52:45.988Z,19.75
2023-02-21T15:53:45.030Z,19.79
